Position Fahrer Laps Zeit Diff Beste Runde Fahrzeug Status Gesamt Bonuspunkte Strafpunkte
1 Kevin Meyer 20 31:03.114 - 1:29.131 BMW M6 GT3 Beendet 40 0 0
2 Martin Petermann 20 31:14.571 0:11.457 1:29.749 Chevrolet Corvette C7 GT3-R Callaway Beendet 37 0 0
3 Thomas Nuts 20 31:16.039 0:12.925 1:29.918 Chevrolet Corvette C7 GT3-R Callaway Beendet 35 0 0
4 Guido Wille 20 31:30.398 0:27.284 1:30.905 BMW M6 GT3 Beendet 33 0 0
5 Christian Büttner 20 31:30.587 0:27.473 1:30.679 Porsche 911 GT3 R (2019) Beendet 31 0 0
6 Emanuel Weiser 20 31:36.095 0:32.981 1:30.858 Mercedes-Benz AMG GT3 2020 Beendet 29 0 0
7 Guido Baumhoff 20 31:57.505 0:54.391 1:31.439 Porsche 911 GT3 R (2019) Beendet 27 0 0
8 Jan Blossey 20 32:00.428 0:57.314 1:30.836 Mercedes-Benz AMG GT3 2020 Beendet 25 0 0
9 Peter Smith 20 32:15.844 1:12.730 1:31.674 Chevrolet Corvette C7 GT3-R Callaway Beendet 23 0 0

Rennverlauf

Die schnellsten 5 pro Runde

Runde 1

Pos Rennpos Fahrer Zeit Diff
1 1 Jan Blossey 2:32.177 -
2 2 Guido Wille 2:32.552 0:00.375
3 3 Emanuel Weiser 2:32.624 0:00.447
4 4 Christian Büttner 2:33.215 0:01.038
5 5 Guido Baumhoff 2:33.260 0:01.083

Runde 2

Pos Rennpos Fahrer Zeit Diff
1 1 Guido Wille 1:33.127 -
2 2 Emanuel Weiser 1:33.411 0:00.284
3 4 Kevin Meyer 1:33.658 0:00.531
4 5 Martin Petermann 1:33.896 0:00.769
5 3 Jan Blossey 1:34.351 0:01.224

Runde 3

Pos Rennpos Fahrer Zeit Diff
1 2 Kevin Meyer 1:30.180 -
2 3 Martin Petermann 1:30.456 0:00.276
3 1 Guido Wille 1:31.139 0:00.959
4 4 Thomas Nuts 1:31.236 0:01.056
5 9 Guido Baumhoff 1:32.350 0:02.170

Runde 4

Pos Rennpos Fahrer Zeit Diff
1 1 Kevin Meyer 1:29.770 -
2 4 Thomas Nuts 1:30.580 0:00.810
3 3 Martin Petermann 1:30.608 0:00.838
4 2 Guido Wille 1:31.548 0:01.778
5 5 Christian Büttner 1:31.928 0:02.158

Runde 5

Pos Rennpos Fahrer Zeit Diff
1 1 Kevin Meyer 1:29.131 -
2 4 Thomas Nuts 1:30.263 0:01.132
3 2 Martin Petermann 1:30.583 0:01.452
4 5 Christian Büttner 1:31.319 0:02.188
5 3 Guido Wille 1:31.713 0:02.582

Runde 6

Pos Rennpos Fahrer Zeit Diff
1 1 Kevin Meyer 1:29.134 -
2 2 Martin Petermann 1:31.041 0:01.907
3 5 Christian Büttner 1:31.363 0:02.229
4 6 Emanuel Weiser 1:31.456 0:02.322
5 3 Thomas Nuts 1:31.502 0:02.368

Runde 7

Pos Rennpos Fahrer Zeit Diff
1 1 Kevin Meyer 1:29.443 -
2 2 Martin Petermann 1:29.964 0:00.521
3 3 Thomas Nuts 1:30.445 0:01.002
4 5 Christian Büttner 1:31.210 0:01.767
5 6 Emanuel Weiser 1:31.223 0:01.780

Runde 8

Pos Rennpos Fahrer Zeit Diff
1 1 Kevin Meyer 1:29.166 -
2 3 Thomas Nuts 1:30.078 0:00.912
3 2 Martin Petermann 1:30.348 0:01.182
4 5 Christian Büttner 1:30.961 0:01.795
5 6 Emanuel Weiser 1:30.981 0:01.815

Runde 9

Pos Rennpos Fahrer Zeit Diff
1 1 Kevin Meyer 1:29.624 -
2 3 Thomas Nuts 1:29.918 0:00.294
3 2 Martin Petermann 1:30.053 0:00.429
4 6 Emanuel Weiser 1:30.886 0:01.262
5 5 Christian Büttner 1:31.077 0:01.453

Runde 10

Pos Rennpos Fahrer Zeit Diff
1 1 Kevin Meyer 1:29.741 -
2 2 Martin Petermann 1:30.074 0:00.333
3 3 Thomas Nuts 1:30.166 0:00.425
4 5 Christian Büttner 1:30.708 0:00.967
5 8 Jan Blossey 1:30.836 0:01.095

Runde 11

Pos Rennpos Fahrer Zeit Diff
1 2 Martin Petermann 1:29.749 -
2 1 Kevin Meyer 1:29.752 0:00.003
3 3 Thomas Nuts 1:30.199 0:00.450
4 6 Emanuel Weiser 1:30.858 0:01.109
5 4 Guido Wille 1:30.905 0:01.156

Runde 12

Pos Rennpos Fahrer Zeit Diff
1 1 Kevin Meyer 1:29.741 -
2 3 Thomas Nuts 1:30.281 0:00.540
3 2 Martin Petermann 1:30.476 0:00.735
4 5 Christian Büttner 1:31.081 0:01.340
5 4 Guido Wille 1:31.223 0:01.482

Runde 13

Pos Rennpos Fahrer Zeit Diff
1 2 Martin Petermann 1:29.943 -
2 3 Thomas Nuts 1:30.072 0:00.129
3 1 Kevin Meyer 1:30.746 0:00.803
4 5 Christian Büttner 1:30.930 0:00.987
5 4 Guido Wille 1:31.248 0:01.305

Runde 14

Pos Rennpos Fahrer Zeit Diff
1 1 Kevin Meyer 1:29.631 -
2 3 Thomas Nuts 1:29.979 0:00.348
3 2 Martin Petermann 1:30.087 0:00.456
4 5 Christian Büttner 1:30.958 0:01.327
5 4 Guido Wille 1:31.036 0:01.405

Runde 15

Pos Rennpos Fahrer Zeit Diff
1 2 Martin Petermann 1:30.230 -
2 3 Thomas Nuts 1:30.289 0:00.059
3 5 Christian Büttner 1:30.761 0:00.531
4 8 Jan Blossey 1:30.943 0:00.713
5 4 Guido Wille 1:31.244 0:01.014

Runde 16

Pos Rennpos Fahrer Zeit Diff
1 1 Kevin Meyer 1:30.036 -
2 3 Thomas Nuts 1:30.193 0:00.157
3 2 Martin Petermann 1:30.532 0:00.496
4 5 Christian Büttner 1:30.679 0:00.643
5 4 Guido Wille 1:31.230 0:01.194

Runde 17

Pos Rennpos Fahrer Zeit Diff
1 1 Kevin Meyer 1:29.451 -
2 2 Martin Petermann 1:30.241 0:00.790
3 3 Thomas Nuts 1:30.543 0:01.092
4 6 Emanuel Weiser 1:31.065 0:01.614
5 4 Guido Wille 1:31.080 0:01.629

Runde 18

Pos Rennpos Fahrer Zeit Diff
1 1 Kevin Meyer 1:29.299 -
2 3 Thomas Nuts 1:30.513 0:01.214
3 2 Martin Petermann 1:30.725 0:01.426
4 5 Christian Büttner 1:30.747 0:01.448
5 4 Guido Wille 1:31.179 0:01.880

Runde 19

Pos Rennpos Fahrer Zeit Diff
1 1 Kevin Meyer 1:29.502 -
2 2 Martin Petermann 1:30.502 0:01.000
3 3 Thomas Nuts 1:30.743 0:01.241
4 5 Christian Büttner 1:31.147 0:01.645
5 7 Guido Baumhoff 1:31.624 0:02.122

Runde 20

Pos Rennpos Fahrer Zeit Diff
1 1 Kevin Meyer 1:29.783 -
2 3 Thomas Nuts 1:30.957 0:01.174
3 6 Emanuel Weiser 1:31.278 0:01.495
4 2 Martin Petermann 1:31.426 0:01.643
5 7 Guido Baumhoff 1:31.696 0:01.913

SERVER

0 / 61
virtualracing.org #1 GTM
Training 1Lime Rock Park -- Uphill Chicane
0 / 81
virtualracing.org #3 FS
Training 1Oulton Park International NC
0 / 81
virtualracing.org #4 LSM
Training 1Spa-Francorchamps Endurance
0 / 34
virtualracing.org #5 VRF1S
Training 1Zandvoort 2021
0 / 34
virtualracing.org #6 VRCS
Training 1Donington Park National Circuit
0 / 81
virtualracing.org #P1 BTCC
QualifikationOulton Park International
0 / 81
virtualracing.org #P2 CA
Training 1Silverstone Grand Prix
0 / 34
virtualracing.org #P3 Mini
Training 1Silverstone National
0 / 33
virtualracing.org #P4 IR18
Training 1Indianapolis Road Course
0/31
virtualracing.org#4 GTC Training Standard
TrainingDaytona International Speedway - Road Course
0/31
virtualracing.org#5 GTC Training A
TrainingDaytona International Speedway - Road Course
0/24
virtualracing.org#30 ALT Training
TrainingFuji Speedway - Grand Prix Circuit 1968
0/32
virtualracing.org#33 GTC Starttest
TrainingDaytona International Speedway - Road Course